sensor_id;sensor_type;location;lat;lon;timestamp;temperature;humidity
46784;DHT22;32544;52.832;13.816;2022-11-23T00:00:36;22.60;48.30
46784;DHT22;32544;52.832;13.816;2022-11-23T00:01:37;22.60;48.40
46784;DHT22;32544;52.832;13.816;2022-11-23T00:02:37;22.60;48.30
46784;DHT22;32544;52.832;13.816;2022-11-23T00:03:38;22.60;48.30
46784;DHT22;32544;52.832;13.816;2022-11-23T00:04:38;22.60;48.30
46784;DHT22;32544;52.832;13.816;2022-11-23T00:05:39;22.60;48.40
46784;DHT22;32544;52.832;13.816;2022-11-23T00:06:40;22.60;49.00
46784;DHT22;32544;52.832;13.816;2022-11-23T00:07:40;22.60;48.40
46784;DHT22;32544;52.832;13.816;2022-11-23T00:08:41;22.60;48.40
46784;DHT22;32544;52.832;13.816;2022-11-23T00:09:42;22.60;48.40
46784;DHT22;32544;52.832;13.816;2022-11-23T00:10:42;22.60;48.40
46784;DHT22;32544;52.832;13.816;2022-11-23T00:11:43;22.60;48.40
46784;DHT22;32544;52.832;13.816;2022-11-23T00:12:44;22.60;48.40
46784;DHT22;32544;52.832;13.816;2022-11-23T00:13:44;22.60;48.40
46784;DHT22;32544;52.832;13.816;2022-11-23T00:14:45;22.60;48.40
46784;DHT22;32544;52.832;13.816;2022-11-23T00:15:46;22.60;48.40
46784;DHT22;32544;52.832;13.816;2022-11-23T00:16:46;22.60;48.40
46784;DHT22;32544;52.832;13.816;2022-11-23T00:17:47;22.60;48.40
46784;DHT22;32544;52.832;13.816;2022-11-23T00:18:48;22.60;48.50
46784;DHT22;32544;52.832;13.816;2022-11-23T00:19:51;22.60;48.50
46784;DHT22;32544;52.832;13.816;2022-11-23T00:20:51;22.60;48.40
46784;DHT22;32544;52.832;13.816;2022-11-23T00:21:52;22.60;48.40
46784;DHT22;32544;52.832;13.816;2022-11-23T00:22:52;22.60;48.50
46784;DHT22;32544;52.832;13.816;2022-11-23T00:23:53;22.50;48.50
46784;DHT22;32544;52.832;13.816;2022-11-23T00:24:54;22.60;48.50
46784;DHT22;32544;52.832;13.816;2022-11-23T00:25:54;22.50;48.50
46784;DHT22;32544;52.832;13.816;2022-11-23T00:26:55;22.50;48.50
46784;DHT22;32544;52.832;13.816;2022-11-23T00:27:55;22.50;48.50
46784;DHT22;32544;52.832;13.816;2022-11-23T00:28:56;22.50;48.50
46784;DHT22;32544;52.832;13.816;2022-11-23T00:30:00;22.50;48.50
46784;DHT22;32544;52.832;13.816;2022-11-23T00:31:01;22.50;48.50
46784;DHT22;32544;52.832;13.816;2022-11-23T00:32:01;22.50;48.50
46784;DHT22;32544;52.832;13.816;2022-11-23T00:33:02;22.50;48.50
46784;DHT22;32544;52.832;13.816;2022-11-23T00:34:04;22.60;48.50
46784;DHT22;32544;52.832;13.816;2022-11-23T00:35:05;22.50;48.50
46784;DHT22;32544;52.832;13.816;2022-11-23T00:36:10;22.50;48.50
46784;DHT22;32544;52.832;13.816;2022-11-23T00:37:11;22.50;48.50
46784;DHT22;32544;52.832;13.816;2022-11-23T00:38:12;22.50;48.50
46784;DHT22;32544;52.832;13.816;2022-11-23T00:39:12;22.50;48.50
46784;DHT22;32544;52.832;13.816;2022-11-23T00:40:15;22.50;48.50
46784;DHT22;32544;52.832;13.816;2022-11-23T00:41:19;22.50;48.50
46784;DHT22;32544;52.832;13.816;2022-11-23T00:42:20;22.50;48.50
46784;DHT22;32544;52.832;13.816;2022-11-23T00:43:21;22.50;48.50
46784;DHT22;32544;52.832;13.816;2022-11-23T00:44:21;22.50;48.50
46784;DHT22;32544;52.832;13.816;2022-11-23T00:45:23;22.50;48.50
46784;DHT22;32544;52.832;13.816;2022-11-23T00:46:25;22.50;48.40
46784;DHT22;32544;52.832;13.816;2022-11-23T00:47:26;22.50;48.40
46784;DHT22;32544;52.832;13.816;2022-11-23T00:48:26;22.50;48.40
46784;DHT22;32544;52.832;13.816;2022-11-23T00:49:27;22.50;48.50
46784;DHT22;32544;52.832;13.816;2022-11-23T00:50:27;22.50;48.40
46784;DHT22;32544;52.832;13.816;2022-11-23T00:51:29;22.50;49.10
46784;DHT22;32544;52.832;13.816;2022-11-23T00:52:30;22.50;48.50
46784;DHT22;32544;52.832;13.816;2022-11-23T00:53:30;22.50;48.50
46784;DHT22;32544;52.832;13.816;2022-11-23T00:54:31;22.50;48.50
46784;DHT22;32544;52.832;13.816;2022-11-23T00:55:32;22.50;48.50
46784;DHT22;32544;52.832;13.816;2022-11-23T00:56:33;22.50;48.40
46784;DHT22;32544;52.832;13.816;2022-11-23T00:57:34;22.50;48.40
46784;DHT22;32544;52.832;13.816;2022-11-23T00:58:34;22.50;48.50
46784;DHT22;32544;52.832;13.816;2022-11-23T00:59:38;22.50;48.50
46784;DHT22;32544;52.832;13.816;2022-11-23T01:00:38;22.50;48.50
46784;DHT22;32544;52.832;13.816;2022-11-23T01:01:39;22.50;48.50
46784;DHT22;32544;52.832;13.816;2022-11-23T01:02:39;22.50;48.50
46784;DHT22;32544;52.832;13.816;2022-11-23T01:03:42;22.50;48.50
46784;DHT22;32544;52.832;13.816;2022-11-23T01:04:42;22.50;49.10
46784;DHT22;32544;52.832;13.816;2022-11-23T01:05:43;22.50;48.50
46784;DHT22;32544;52.832;13.816;2022-11-23T01:06:44;22.50;48.50
46784;DHT22;32544;52.832;13.816;2022-11-23T01:07:44;22.50;48.50
46784;DHT22;32544;52.832;13.816;2022-11-23T01:08:49;22.50;48.50
46784;DHT22;32544;52.832;13.816;2022-11-23T01:09:50;22.50;49.10
46784;DHT22;32544;52.832;13.816;2022-11-23T01:10:50;22.50;48.50
46784;DHT22;32544;52.832;13.816;2022-11-23T01:11:51;22.50;48.40
46784;DHT22;32544;52.832;13.816;2022-11-23T01:12:52;22.50;48.50
46784;DHT22;32544;52.832;13.816;2022-11-23T01:13:53;22.50;48.50
46784;DHT22;32544;52.832;13.816;2022-11-23T01:14:53;22.50;48.50
46784;DHT22;32544;52.832;13.816;2022-11-23T01:15:55;22.50;49.10
46784;DHT22;32544;52.832;13.816;2022-11-23T01:16:56;22.50;48.50
46784;DHT22;32544;52.832;13.816;2022-11-23T01:17:57;22.50;48.50
46784;DHT22;32544;52.832;13.816;2022-11-23T01:18:58;22.50;48.40
46784;DHT22;32544;52.832;13.816;2022-11-23T01:19:59;22.50;48.40
46784;DHT22;32544;52.832;13.816;2022-11-23T01:21:00;22.50;48.40
46784;DHT22;32544;52.832;13.816;2022-11-23T01:22:01;22.50;48.30
46784;DHT22;32544;52.832;13.816;2022-11-23T01:23:02;22.50;48.20
46784;DHT22;32544;52.832;13.816;2022-11-23T01:24:03;22.50;48.10
46784;DHT22;32544;52.832;13.816;2022-11-23T01:25:03;22.50;48.00
46784;DHT22;32544;52.832;13.816;2022-11-23T01:26:05;22.50;48.00
46784;DHT22;32544;52.832;13.816;2022-11-23T01:27:06;22.50;48.00
46784;DHT22;32544;52.832;13.816;2022-11-23T01:28:07;22.50;47.90
46784;DHT22;32544;52.832;13.816;2022-11-23T01:29:08;22.50;47.90
46784;DHT22;32544;52.832;13.816;2022-11-23T01:30:08;22.50;48.00
46784;DHT22;32544;52.832;13.816;2022-11-23T01:31:11;22.50;48.00
46784;DHT22;32544;52.832;13.816;2022-11-23T01:32:11;22.50;48.00
46784;DHT22;32544;52.832;13.816;2022-11-23T01:33:12;22.50;48.10
46784;DHT22;32544;52.832;13.816;2022-11-23T01:34:13;22.50;48.10
46784;DHT22;32544;52.832;13.816;2022-11-23T01:35:14;22.50;48.10
46784;DHT22;32544;52.832;13.816;2022-11-23T01:36:15;22.50;48.10
46784;DHT22;32544;52.832;13.816;2022-11-23T01:37:17;22.50;48.80
46784;DHT22;32544;52.832;13.816;2022-11-23T01:38:18;22.50;48.20
46784;DHT22;32544;52.832;13.816;2022-11-23T01:39:18;22.50;48.20
46784;DHT22;32544;52.832;13.816;2022-11-23T01:40:19;22.50;48.10
46784;DHT22;32544;52.832;13.816;2022-11-23T01:41:24;22.50;48.10
46784;DHT22;32544;52.832;13.816;2022-11-23T01:43:45;22.50;48.10
46784;DHT22;32544;52.832;13.816;2022-11-23T01:44:47;22.50;48.20
46784;DHT22;32544;52.832;13.816;2022-11-23T01:46:52;22.50;48.20
46784;DHT22;32544;52.832;13.816;2022-11-23T01:47:53;22.50;48.20
46784;DHT22;32544;52.832;13.816;2022-11-23T01:48:54;22.50;48.20
46784;DHT22;32544;52.832;13.816;2022-11-23T01:49:57;22.50;48.20
46784;DHT22;32544;52.832;13.816;2022-11-23T01:50:57;22.50;48.20
46784;DHT22;32544;52.832;13.816;2022-11-23T01:52:01;22.50;48.20
46784;DHT22;32544;52.832;13.816;2022-11-23T01:53:03;22.50;48.20
46784;DHT22;32544;52.832;13.816;2022-11-23T01:54:05;22.50;48.20
46784;DHT22;32544;52.832;13.816;2022-11-23T01:55:06;22.50;48.20
46784;DHT22;32544;52.832;13.816;2022-11-23T01:56:08;22.50;48.20
46784;DHT22;32544;52.832;13.816;2022-11-23T01:57:11;22.50;48.30
46784;DHT22;32544;52.832;13.816;2022-11-23T01:58:13;22.50;48.20
46784;DHT22;32544;52.832;13.816;2022-11-23T01:59:15;22.40;48.20
46784;DHT22;32544;52.832;13.816;2022-11-23T02:00:16;22.50;48.20
46784;DHT22;32544;52.832;13.816;2022-11-23T02:01:17;22.50;48.20
46784;DHT22;32544;52.832;13.816;2022-11-23T02:02:18;22.50;48.20
46784;DHT22;32544;52.832;13.816;2022-11-23T02:03:18;22.50;48.20
46784;DHT22;32544;52.832;13.816;2022-11-23T02:04:21;22.50;48.20
46784;DHT22;32544;52.832;13.816;2022-11-23T02:05:28;22.50;48.20
46784;DHT22;32544;52.832;13.816;2022-11-23T02:06:30;22.50;48.20
46784;DHT22;32544;52.832;13.816;2022-11-23T02:07:34;22.50;48.20
46784;DHT22;32544;52.832;13.816;2022-11-23T02:08:35;22.50;48.20
46784;DHT22;32544;52.832;13.816;2022-11-23T02:09:36;22.50;48.20
46784;DHT22;32544;52.832;13.816;2022-11-23T02:10:37;22.50;48.20
46784;DHT22;32544;52.832;13.816;2022-11-23T02:11:38;22.40;48.20
46784;DHT22;32544;52.832;13.816;2022-11-23T02:12:38;22.50;48.20
46784;DHT22;32544;52.832;13.816;2022-11-23T02:13:39;22.50;48.20
46784;DHT22;32544;52.832;13.816;2022-11-23T02:14:42;22.50;48.20
46784;DHT22;32544;52.832;13.816;2022-11-23T02:15:44;22.50;48.20
46784;DHT22;32544;52.832;13.816;2022-11-23T02:16:44;22.50;48.80
46784;DHT22;32544;52.832;13.816;2022-11-23T02:17:45;22.50;48.20
46784;DHT22;32544;52.832;13.816;2022-11-23T02:18:48;22.50;48.20
46784;DHT22;32544;52.832;13.816;2022-11-23T02:20:00;22.50;48.20
46784;DHT22;32544;52.832;13.816;2022-11-23T02:21:02;22.50;48.20
46784;DHT22;32544;52.832;13.816;2022-11-23T02:22:05;22.50;48.20
46784;DHT22;32544;52.832;13.816;2022-11-23T02:23:16;22.50;48.20
46784;DHT22;32544;52.832;13.816;2022-11-23T02:24:22;22.50;48.20
46784;DHT22;32544;52.832;13.816;2022-11-23T02:26:44;22.50;48.20
46784;DHT22;32544;52.832;13.816;2022-11-23T02:27:45;22.50;48.20
46784;DHT22;32544;52.832;13.816;2022-11-23T02:28:46;22.50;48.20
46784;DHT22;32544;52.832;13.816;2022-11-23T02:29:49;22.50;48.30
46784;DHT22;32544;52.832;13.816;2022-11-23T02:30:54;22.50;48.20
46784;DHT22;32544;52.832;13.816;2022-11-23T02:31:57;22.50;48.20
46784;DHT22;32544;52.832;13.816;2022-11-23T02:32:58;22.50;48.20
46784;DHT22;32544;52.832;13.816;2022-11-23T02:33:59;22.50;48.20
46784;DHT22;32544;52.832;13.816;2022-11-23T02:34:59;22.50;48.20
46784;DHT22;32544;52.832;13.816;2022-11-23T02:36:00;22.50;48.20
46784;DHT22;32544;52.832;13.816;2022-11-23T02:37:03;22.50;48.20
46784;DHT22;32544;52.832;13.816;2022-11-23T02:38:04;22.50;48.20
46784;DHT22;32544;52.832;13.816;2022-11-23T02:40:22;22.50;48.20
46784;DHT22;32544;52.832;13.816;2022-11-23T02:41:25;22.50;48.20
46784;DHT22;32544;52.832;13.816;2022-11-23T02:42:25;22.50;48.20
46784;DHT22;32544;52.832;13.816;2022-11-23T02:43:27;22.50;48.20
46784;DHT22;32544;52.832;13.816;2022-11-23T02:44:43;22.50;48.20
46784;DHT22;32544;52.832;13.816;2022-11-23T02:45:49;22.50;48.20
46784;DHT22;32544;52.832;13.816;2022-11-23T02:46:50;22.50;48.20
46784;DHT22;32544;52.832;13.816;2022-11-23T02:47:51;22.50;48.20
46784;DHT22;32544;52.832;13.816;2022-11-23T02:48:52;22.50;48.20
46784;DHT22;32544;52.832;13.816;2022-11-23T02:49:53;22.40;48.20
46784;DHT22;32544;52.832;13.816;2022-11-23T02:50:53;22.50;48.30
46784;DHT22;32544;52.832;13.816;2022-11-23T02:51:54;22.50;48.20
46784;DHT22;32544;52.832;13.816;2022-11-23T02:52:58;22.40;48.20
46784;DHT22;32544;52.832;13.816;2022-11-23T02:53:58;22.50;48.30
46784;DHT22;32544;52.832;13.816;2022-11-23T02:54:59;22.50;48.20
46784;DHT22;32544;52.832;13.816;2022-11-23T02:56:00;22.50;48.20
46784;DHT22;32544;52.832;13.816;2022-11-23T02:57:01;22.50;48.20
46784;DHT22;32544;52.832;13.816;2022-11-23T02:58:02;22.50;48.30
46784;DHT22;32544;52.832;13.816;2022-11-23T02:59:03;22.40;48.20
46784;DHT22;32544;52.832;13.816;2022-11-23T03:00:04;22.40;48.20
46784;DHT22;32544;52.832;13.816;2022-11-23T03:01:05;22.40;48.20
46784;DHT22;32544;52.832;13.816;2022-11-23T03:02:06;22.50;48.20
46784;DHT22;32544;52.832;13.816;2022-11-23T03:03:06;22.50;48.30
46784;DHT22;32544;52.832;13.816;2022-11-23T03:04:07;22.50;48.20
46784;DHT22;32544;52.832;13.816;2022-11-23T03:05:08;22.50;48.20
46784;DHT22;32544;52.832;13.816;2022-11-23T03:06:08;22.50;48.20
46784;DHT22;32544;52.832;13.816;2022-11-23T03:07:09;22.50;48.20
46784;DHT22;32544;52.832;13.816;2022-11-23T03:08:09;22.50;48.10
46784;DHT22;32544;52.832;13.816;2022-11-23T03:09:11;22.50;48.20
46784;DHT22;32544;52.832;13.816;2022-11-23T03:10:11;22.50;48.20
46784;DHT22;32544;52.832;13.816;2022-11-23T03:11:12;22.50;48.20
46784;DHT22;32544;52.832;13.816;2022-11-23T03:12:13;22.50;48.20
46784;DHT22;32544;52.832;13.816;2022-11-23T03:13:15;22.50;48.10
46784;DHT22;32544;52.832;13.816;2022-11-23T03:14:16;22.50;48.20
46784;DHT22;32544;52.832;13.816;2022-11-23T03:15:23;22.40;48.00
46784;DHT22;32544;52.832;13.816;2022-11-23T03:16:24;22.50;48.10
46784;DHT22;32544;52.832;13.816;2022-11-23T03:17:24;22.50;48.00
46784;DHT22;32544;52.832;13.816;2022-11-23T03:18:27;22.50;48.00
46784;DHT22;32544;52.832;13.816;2022-11-23T03:19:28;22.50;48.00
46784;DHT22;32544;52.832;13.816;2022-11-23T03:20:29;22.50;48.00
46784;DHT22;32544;52.832;13.816;2022-11-23T03:21:30;22.50;48.00
46784;DHT22;32544;52.832;13.816;2022-11-23T03:22:35;22.50;48.00
46784;DHT22;32544;52.832;13.816;2022-11-23T03:23:36;22.50;48.00
46784;DHT22;32544;52.832;13.816;2022-11-23T03:24:39;22.50;48.00
46784;DHT22;32544;52.832;13.816;2022-11-23T03:25:42;22.50;48.00
46784;DHT22;32544;52.832;13.816;2022-11-23T03:26:46;22.50;47.90
46784;DHT22;32544;52.832;13.816;2022-11-23T03:27:52;22.50;48.00
46784;DHT22;32544;52.832;13.816;2022-11-23T03:28:53;22.50;48.00
46784;DHT22;32544;52.832;13.816;2022-11-23T03:29:54;22.50;48.00
46784;DHT22;32544;52.832;13.816;2022-11-23T03:30:55;22.50;48.00
46784;DHT22;32544;52.832;13.816;2022-11-23T03:31:56;22.50;48.00
46784;DHT22;32544;52.832;13.816;2022-11-23T03:32:58;22.50;48.00
46784;DHT22;32544;52.832;13.816;2022-11-23T03:33:58;22.50;48.00
46784;DHT22;32544;52.832;13.816;2022-11-23T03:35:00;22.50;48.00
46784;DHT22;32544;52.832;13.816;2022-11-23T03:36:02;22.50;48.00
46784;DHT22;32544;52.832;13.816;2022-11-23T03:37:06;22.50;48.00
46784;DHT22;32544;52.832;13.816;2022-11-23T03:38:06;22.50;48.00
46784;DHT22;32544;52.832;13.816;2022-11-23T03:39:07;22.50;48.70
46784;DHT22;32544;52.832;13.816;2022-11-23T03:40:28;22.50;48.00
46784;DHT22;32544;52.832;13.816;2022-11-23T03:42:01;22.50;48.00
46784;DHT22;32544;52.832;13.816;2022-11-23T03:43:07;22.40;48.00
46784;DHT22;32544;52.832;13.816;2022-11-23T03:44:08;22.50;48.00
46784;DHT22;32544;52.832;13.816;2022-11-23T03:45:09;22.50;48.10
46784;DHT22;32544;52.832;13.816;2022-11-23T03:46:10;22.50;48.00
46784;DHT22;32544;52.832;13.816;2022-11-23T03:47:10;22.50;48.00
46784;DHT22;32544;52.832;13.816;2022-11-23T03:48:12;22.50;48.00
46784;DHT22;32544;52.832;13.816;2022-11-23T03:49:13;22.50;48.00
46784;DHT22;32544;52.832;13.816;2022-11-23T03:50:14;22.50;48.00
46784;DHT22;32544;52.832;13.816;2022-11-23T03:51:14;22.50;48.00
46784;DHT22;32544;52.832;13.816;2022-11-23T03:52:15;22.50;47.90
46784;DHT22;32544;52.832;13.816;2022-11-23T03:53:17;22.50;48.00
46784;DHT22;32544;52.832;13.816;2022-11-23T03:54:19;22.50;48.00
46784;DHT22;32544;52.832;13.816;2022-11-23T03:55:19;22.50;48.00
46784;DHT22;32544;52.832;13.816;2022-11-23T03:56:20;22.50;48.00
46784;DHT22;32544;52.832;13.816;2022-11-23T03:57:21;22.40;48.00
46784;DHT22;32544;52.832;13.816;2022-11-23T03:58:21;22.50;48.00
46784;DHT22;32544;52.832;13.816;2022-11-23T03:59:22;22.40;47.90
46784;DHT22;32544;52.832;13.816;2022-11-23T04:00:24;22.40;48.00
46784;DHT22;32544;52.832;13.816;2022-11-23T04:01:25;22.40;48.00
46784;DHT22;32544;52.832;13.816;2022-11-23T04:02:33;22.50;48.00
46784;DHT22;32544;52.832;13.816;2022-11-23T04:03:39;22.50;48.00
46784;DHT22;32544;52.832;13.816;2022-11-23T04:05:00;22.50;48.00
46784;DHT22;32544;52.832;13.816;2022-11-23T04:06:20;22.50;48.00
46784;DHT22;32544;52.832;13.816;2022-11-23T04:07:26;22.50;48.00
46784;DHT22;32544;52.832;13.816;2022-11-23T04:08:28;22.40;48.00
46784;DHT22;32544;52.832;13.816;2022-11-23T04:09:30;22.50;48.10
46784;DHT22;32544;52.832;13.816;2022-11-23T04:10:39;22.50;48.00
46784;DHT22;32544;52.832;13.816;2022-11-23T04:11:55;22.40;48.00
46784;DHT22;32544;52.832;13.816;2022-11-23T04:12:55;22.50;48.00
46784;DHT22;32544;52.832;13.816;2022-11-23T04:13:56;22.50;48.00
46784;DHT22;32544;52.832;13.816;2022-11-23T04:14:57;22.40;48.00
46784;DHT22;32544;52.832;13.816;2022-11-23T04:15:58;22.50;48.00
46784;DHT22;32544;52.832;13.816;2022-11-23T04:16:58;22.50;48.10
46784;DHT22;32544;52.832;13.816;2022-11-23T04:17:59;22.40;48.00
46784;DHT22;32544;52.832;13.816;2022-11-23T04:19:00;22.50;48.00
46784;DHT22;32544;52.832;13.816;2022-11-23T04:20:00;22.40;48.00
46784;DHT22;32544;52.832;13.816;2022-11-23T04:21:02;22.40;48.00
46784;DHT22;32544;52.832;13.816;2022-11-23T04:22:02;22.50;48.10
46784;DHT22;32544;52.832;13.816;2022-11-23T04:23:08;22.50;48.00
46784;DHT22;32544;52.832;13.816;2022-11-23T04:24:09;22.50;48.00
46784;DHT22;32544;52.832;13.816;2022-11-23T04:25:11;22.40;48.00
46784;DHT22;32544;52.832;13.816;2022-11-23T04:26:11;22.40;48.00
46784;DHT22;32544;52.832;13.816;2022-11-23T04:27:15;22.40;48.00
46784;DHT22;32544;52.832;13.816;2022-11-23T04:28:16;22.50;48.00
46784;DHT22;32544;52.832;13.816;2022-11-23T04:29:18;22.50;48.00
46784;DHT22;32544;52.832;13.816;2022-11-23T04:30:24;22.50;48.00
46784;DHT22;32544;52.832;13.816;2022-11-23T04:31:27;22.50;48.00
46784;DHT22;32544;52.832;13.816;2022-11-23T04:32:38;22.50;48.00
46784;DHT22;32544;52.832;13.816;2022-11-23T04:33:39;22.40;48.00
46784;DHT22;32544;52.832;13.816;2022-11-23T04:34:40;22.40;48.00
46784;DHT22;32544;52.832;13.816;2022-11-23T04:35:42;22.50;48.00
46784;DHT22;32544;52.832;13.816;2022-11-23T04:36:43;22.40;48.00
46784;DHT22;32544;52.832;13.816;2022-11-23T04:37:44;22.50;48.00
46784;DHT22;32544;52.832;13.816;2022-11-23T04:38:45;22.50;48.00
46784;DHT22;32544;52.832;13.816;2022-11-23T04:39:48;22.50;48.00
46784;DHT22;32544;52.832;13.816;2022-11-23T04:40:54;22.50;48.00
46784;DHT22;32544;52.832;13.816;2022-11-23T04:41:54;22.50;48.00
46784;DHT22;32544;52.832;13.816;2022-11-23T04:42:56;22.40;47.90
46784;DHT22;32544;52.832;13.816;2022-11-23T04:43:58;22.40;47.90
46784;DHT22;32544;52.832;13.816;2022-11-23T04:44:59;22.40;47.90
46784;DHT22;32544;52.832;13.816;2022-11-23T04:46:00;22.40;47.90
46784;DHT22;32544;52.832;13.816;2022-11-23T04:47:03;22.40;47.90
46784;DHT22;32544;52.832;13.816;2022-11-23T04:48:06;22.40;48.00
46784;DHT22;32544;52.832;13.816;2022-11-23T04:49:08;22.40;47.90
46784;DHT22;32544;52.832;13.816;2022-11-23T04:50:09;22.40;47.90
46784;DHT22;32544;52.832;13.816;2022-11-23T04:51:10;22.40;47.90
46784;DHT22;32544;52.832;13.816;2022-11-23T04:52:12;22.50;47.90
46784;DHT22;32544;52.832;13.816;2022-11-23T04:53:18;22.40;47.90
46784;DHT22;32544;52.832;13.816;2022-11-23T04:54:20;22.40;48.00
46784;DHT22;32544;52.832;13.816;2022-11-23T04:55:27;22.40;47.90
46784;DHT22;32544;52.832;13.816;2022-11-23T04:56:30;22.40;48.00
46784;DHT22;32544;52.832;13.816;2022-11-23T04:57:31;22.40;48.00
46784;DHT22;32544;52.832;13.816;2022-11-23T04:58:32;22.40;47.90
46784;DHT22;32544;52.832;13.816;2022-11-23T04:59:32;22.40;47.90
46784;DHT22;32544;52.832;13.816;2022-11-23T05:00:33;22.40;48.00
46784;DHT22;32544;52.832;13.816;2022-11-23T05:01:37;22.40;48.00
46784;DHT22;32544;52.832;13.816;2022-11-23T05:03:00;22.50;48.00
46784;DHT22;32544;52.832;13.816;2022-11-23T05:04:04;22.40;47.90
46784;DHT22;32544;52.832;13.816;2022-11-23T05:05:04;22.40;48.00
46784;DHT22;32544;52.832;13.816;2022-11-23T05:06:06;22.40;48.00
46784;DHT22;32544;52.832;13.816;2022-11-23T05:07:13;22.40;48.00
46784;DHT22;32544;52.832;13.816;2022-11-23T05:08:15;22.40;48.00
46784;DHT22;32544;52.832;13.816;2022-11-23T05:09:27;22.40;48.00
46784;DHT22;32544;52.832;13.816;2022-11-23T05:10:40;22.50;48.00
46784;DHT22;32544;52.832;13.816;2022-11-23T05:11:42;22.40;47.90
46784;DHT22;32544;52.832;13.816;2022-11-23T05:12:43;22.40;47.90
46784;DHT22;32544;52.832;13.816;2022-11-23T05:13:45;22.40;48.00
46784;DHT22;32544;52.832;13.816;2022-11-23T05:14:46;22.40;48.00
46784;DHT22;32544;52.832;13.816;2022-11-23T05:15:51;22.40;47.90
46784;DHT22;32544;52.832;13.816;2022-11-23T05:16:58;22.40;48.00
46784;DHT22;32544;52.832;13.816;2022-11-23T05:18:03;22.40;47.90
46784;DHT22;32544;52.832;13.816;2022-11-23T05:19:05;22.40;47.90
46784;DHT22;32544;52.832;13.816;2022-11-23T05:20:06;22.40;47.90
46784;DHT22;32544;52.832;13.816;2022-11-23T05:21:09;22.40;47.90
46784;DHT22;32544;52.832;13.816;2022-11-23T05:22:10;22.40;47.90
46784;DHT22;32544;52.832;13.816;2022-11-23T05:23:14;22.40;47.90
46784;DHT22;32544;52.832;13.816;2022-11-23T05:24:17;22.40;47.90
46784;DHT22;32544;52.832;13.816;2022-11-23T05:25:29;22.40;47.90
46784;DHT22;32544;52.832;13.816;2022-11-23T05:26:35;22.40;47.90
46784;DHT22;32544;52.832;13.816;2022-11-23T05:27:36;22.40;48.00
46784;DHT22;32544;52.832;13.816;2022-11-23T05:28:37;22.40;48.00
46784;DHT22;32544;52.832;13.816;2022-11-23T05:29:37;22.40;48.00
46784;DHT22;32544;52.832;13.816;2022-11-23T05:30:40;22.40;48.00
46784;DHT22;32544;52.832;13.816;2022-11-23T05:31:42;22.40;48.00
46784;DHT22;32544;52.832;13.816;2022-11-23T05:32:43;22.40;47.90
46784;DHT22;32544;52.832;13.816;2022-11-23T05:33:44;22.40;47.90
46784;DHT22;32544;52.832;13.816;2022-11-23T05:34:44;22.40;47.90
46784;DHT22;32544;52.832;13.816;2022-11-23T05:35:47;22.40;48.00
46784;DHT22;32544;52.832;13.816;2022-11-23T05:36:49;22.40;48.50
46784;DHT22;32544;52.832;13.816;2022-11-23T05:37:51;22.40;47.90
46784;DHT22;32544;52.832;13.816;2022-11-23T05:38:52;22.40;47.90
46784;DHT22;32544;52.832;13.816;2022-11-23T05:40:00;22.40;47.90
46784;DHT22;32544;52.832;13.816;2022-11-23T05:41:01;22.40;47.90
46784;DHT22;32544;52.832;13.816;2022-11-23T05:42:02;22.40;47.90
46784;DHT22;32544;52.832;13.816;2022-11-23T05:43:08;22.40;47.90
46784;DHT22;32544;52.832;13.816;2022-11-23T05:44:09;22.40;47.90
46784;DHT22;32544;52.832;13.816;2022-11-23T05:45:10;22.40;48.00
46784;DHT22;32544;52.832;13.816;2022-11-23T05:46:16;22.40;47.90
46784;DHT22;32544;52.832;13.816;2022-11-23T05:47:17;22.40;47.90
46784;DHT22;32544;52.832;13.816;2022-11-23T05:48:18;22.40;47.90
46784;DHT22;32544;52.832;13.816;2022-11-23T05:49:29;22.40;47.90
46784;DHT22;32544;52.832;13.816;2022-11-23T05:50:31;22.40;47.90
46784;DHT22;32544;52.832;13.816;2022-11-23T05:51:50;22.40;47.90
46784;DHT22;32544;52.832;13.816;2022-11-23T05:52:51;22.40;48.00
46784;DHT22;32544;52.832;13.816;2022-11-23T05:53:52;22.40;48.00
46784;DHT22;32544;52.832;13.816;2022-11-23T05:55:00;22.40;48.00
46784;DHT22;32544;52.832;13.816;2022-11-23T05:56:02;22.40;48.00
46784;DHT22;32544;52.832;13.816;2022-11-23T05:57:08;22.40;48.10
46784;DHT22;32544;52.832;13.816;2022-11-23T05:58:15;22.40;48.10
46784;DHT22;32544;52.832;13.816;2022-11-23T05:59:16;22.40;48.10
46784;DHT22;32544;52.832;13.816;2022-11-23T06:00:22;22.50;48.10
46784;DHT22;32544;52.832;13.816;2022-11-23T06:01:31;22.40;48.00
46784;DHT22;32544;52.832;13.816;2022-11-23T06:02:34;22.40;48.00
46784;DHT22;32544;52.832;13.816;2022-11-23T06:03:36;22.40;48.00
46784;DHT22;32544;52.832;13.816;2022-11-23T06:04:36;22.40;48.00
46784;DHT22;32544;52.832;13.816;2022-11-23T06:05:39;22.40;48.00
46784;DHT22;32544;52.832;13.816;2022-11-23T06:06:40;22.40;48.00
46784;DHT22;32544;52.832;13.816;2022-11-23T06:07:41;22.40;48.00
46784;DHT22;32544;52.832;13.816;2022-11-23T06:08:45;22.40;48.00
46784;DHT22;32544;52.832;13.816;2022-11-23T06:09:46;22.40;48.00
46784;DHT22;32544;52.832;13.816;2022-11-23T06:10:46;22.40;48.00
46784;DHT22;32544;52.832;13.816;2022-11-23T06:11:47;22.40;48.00
46784;DHT22;32544;52.832;13.816;2022-11-23T06:12:51;22.40;48.00
46784;DHT22;32544;52.832;13.816;2022-11-23T06:13:53;22.40;48.00
46784;DHT22;32544;52.832;13.816;2022-11-23T06:14:54;22.40;48.00
46784;DHT22;32544;52.832;13.816;2022-11-23T06:15:58;22.40;48.00
46784;DHT22;32544;52.832;13.816;2022-11-23T06:17:05;22.40;48.00
46784;DHT22;32544;52.832;13.816;2022-11-23T06:18:13;22.40;48.00
46784;DHT22;32544;52.832;13.816;2022-11-23T06:19:19;22.40;48.30
46784;DHT22;32544;52.832;13.816;2022-11-23T06:20:20;22.40;48.00
46784;DHT22;32544;52.832;13.816;2022-11-23T06:21:29;22.40;48.00
46784;DHT22;32544;52.832;13.816;2022-11-23T06:22:29;22.40;48.10
46784;DHT22;32544;52.832;13.816;2022-11-23T06:23:36;22.40;48.10
46784;DHT22;32544;52.832;13.816;2022-11-23T06:24:36;22.40;48.10
46784;DHT22;32544;52.832;13.816;2022-11-23T06:26:01;22.40;48.10
46784;DHT22;32544;52.832;13.816;2022-11-23T06:27:04;22.40;48.10
46784;DHT22;32544;52.832;13.816;2022-11-23T06:28:05;22.40;48.00
46784;DHT22;32544;52.832;13.816;2022-11-23T06:29:24;22.40;48.10
46784;DHT22;32544;52.832;13.816;2022-11-23T06:30:26;22.40;48.10
46784;DHT22;32544;52.832;13.816;2022-11-23T06:31:26;22.40;48.10
46784;DHT22;32544;52.832;13.816;2022-11-23T06:32:27;22.40;48.10
46784;DHT22;32544;52.832;13.816;2022-11-23T06:33:28;22.40;48.20